Time;durP1;ratioP1;P1;durP2;ratioP2;P2;SDS_P1;SDS_P2;PMS_P1;PMS_P2;Temp;Humidity;BMP_temperature;BMP_pressure;BME280_temperature;BME280_humidity;BME280_pressure;Samples;Min_cycle;Max_cycle;Signal;HPM_P1;HPM_P2
2022/09/25 00:00:36;;;;;;;6.22;1.63;;;;;;;;;;5112321;28;20224;-17
2022/09/25 00:03:05;;;;;;;8.07;1.83;;;;;;;;;;5112208;28;20228;-18
2022/09/25 00:05:32;;;;;;;4.18;1.38;;;;;;;;;;5111717;28;20228;-18
2022/09/25 00:07:59;;;;;;;2.92;1.30;;;;;;;;;;5111906;28;20224;-18
2022/09/25 00:10:28;;;;;;;4.93;1.98;;;;;;;;;;5111344;28;20232;-18
2022/09/25 00:12:55;;;;;;;5.47;1.48;;;;;;;;;;5111571;28;20301;-17
2022/09/25 00:15:23;;;;;;;5.20;2.10;;;;;;;;;;5111707;28;20376;-20
2022/09/25 00:17:50;;;;;;;7.30;2.28;;;;;;;;;;5111939;28;20228;-18
2022/09/25 00:20:19;;;;;;;3.55;1.40;;;;;;;;;;5109718;28;20871;-18
2022/09/25 00:22:46;;;;;;;4.57;1.60;;;;;;;;;;5090952;28;20249;-18
2022/09/25 00:25:14;;;;;;;4.45;1.50;;;;;;;;;;5092206;28;20315;-18
2022/09/25 00:27:42;;;;;;;4.28;1.35;;;;;;;;;;5112133;28;20297;-18
2022/09/25 00:30:10;;;;;;;3.10;1.60;;;;;;;;;;5092551;28;20333;-18
2022/09/25 00:32:37;;;;;;;6.78;1.85;;;;;;;;;;5112016;28;20232;-18
2022/09/25 00:35:05;;;;;;;4.40;1.60;;;;;;;;;;5111030;28;20232;-18
2022/09/25 00:37:34;;;;;;;4.28;1.40;;;;;;;;;;5111522;28;20332;-18
2022/09/25 00:40:01;;;;;;;4.68;1.52;;;;;;;;;;5111360;28;20225;-18
2022/09/25 00:42:29;;;;;;;4.22;1.42;;;;;;;;;;5111622;28;20232;-18
2022/09/25 00:44:57;;;;;;;5.72;1.85;;;;;;;;;;5111117;28;20286;-18
2022/09/25 00:47:26;;;;;;;3.55;1.65;;;;;;;;;;5111451;28;20301;-18
2022/09/25 00:49:53;;;;;;;4.07;1.65;;;;;;;;;;5111431;28;20305;-18
2022/09/25 00:52:20;;;;;;;3.75;1.40;;;;;;;;;;5110903;28;20240;-17
2022/09/25 00:54:51;;;;;;;2.47;1.13;;;;;;;;;;5111681;28;20224;-18
2022/09/25 00:57:19;;;;;;;3.17;1.10;;;;;;;;;;5111625;28;20706;-17
2022/09/25 00:59:47;;;;;;;4.90;1.35;;;;;;;;;;5103451;28;20237;-18
2022/09/25 01:02:16;;;;;;;2.40;1.30;;;;;;;;;;5109826;28;20659;-18
2022/09/25 01:04:45;;;;;;;2.45;1.15;;;;;;;;;;5115042;28;20285;-18
2022/09/25 01:07:13;;;;;;;3.33;1.20;;;;;;;;;;5110624;28;20225;-18
2022/09/25 01:09:41;;;;;;;2.38;1.50;;;;;;;;;;5098653;28;20980;-18
2022/09/25 01:12:09;;;;;;;4.93;1.40;;;;;;;;;;5114676;28;20236;-18
2022/09/25 01:14:37;;;;;;;2.72;1.45;;;;;;;;;;5110958;28;20221;-17
2022/09/25 01:17:06;;;;;;;5.40;1.33;;;;;;;;;;5111420;28;20768;-18
2022/09/25 01:19:37;;;;;;;2.67;1.33;;;;;;;;;;5113643;28;20224;-18
2022/09/25 01:22:05;;;;;;;3.05;1.50;;;;;;;;;;5112342;28;20296;-18
2022/09/25 01:24:48;;;;;;;3.80;1.20;;;;;;;;;;5112778;28;20282;-18
2022/09/25 01:27:30;;;;;;;4.75;1.20;;;;;;;;;;5112324;27;20228;-18
2022/09/25 01:30:01;;;;;;;5.72;1.55;;;;;;;;;;5113052;28;20232;-18
2022/09/25 01:32:32;;;;;;;6.82;1.50;;;;;;;;;;5113528;28;20231;-18
2022/09/25 01:35:00;;;;;;;5.35;1.30;;;;;;;;;;5114004;28;20224;-19
2022/09/25 01:37:29;;;;;;;3.47;1.17;;;;;;;;;;5114524;28;20794;-17
2022/09/25 01:39:59;;;;;;;2.88;1.13;;;;;;;;;;5114534;28;20281;-18
2022/09/25 01:42:27;;;;;;;4.05;1.10;;;;;;;;;;5112965;28;20277;-18
2022/09/25 01:44:56;;;;;;;4.00;1.23;;;;;;;;;;5114444;28;20607;-18
2022/09/25 01:47:26;;;;;;;4.20;1.20;;;;;;;;;;5114493;28;20224;-18
2022/09/25 01:49:55;;;;;;;2.72;1.08;;;;;;;;;;5113797;28;20232;-18
2022/09/25 01:52:24;;;;;;;4.63;1.27;;;;;;;;;;5098736;28;20236;-18
2022/09/25 01:54:53;;;;;;;3.38;1.60;;;;;;;;;;5107768;27;20687;-18
2022/09/25 01:57:21;;;;;;;4.53;1.40;;;;;;;;;;5114157;28;20414;-18
2022/09/25 01:59:49;;;;;;;4.35;1.00;;;;;;;;;;5113561;28;20270;-18
2022/09/25 02:02:18;;;;;;;2.15;1.10;;;;;;;;;;5095478;28;20278;-18
2022/09/25 02:04:47;;;;;;;2.67;1.17;;;;;;;;;;5098225;28;20825;-18
2022/09/25 02:07:16;;;;;;;2.75;0.93;;;;;;;;;;5113759;28;20232;-18
2022/09/25 02:09:44;;;;;;;4.00;1.17;;;;;;;;;;5113999;28;20220;-18
2022/09/25 02:12:12;;;;;;;3.65;1.30;;;;;;;;;;5113933;28;20238;-17
2022/09/25 02:14:42;;;;;;;2.42;1.00;;;;;;;;;;5112406;28;20224;-18
2022/09/25 02:17:11;;;;;;;2.75;1.55;;;;;;;;;;5113032;28;20290;-18
2022/09/25 02:22:25;;;;;;;2.92;1.00;;;;;;;;;;5115344;22;20244;-22
2022/09/25 02:24:55;;;;;;;2.72;1.00;;;;;;;;;;5084790;28;20279;-22
2022/09/25 02:27:26;;;;;;;3.55;1.15;;;;;;;;;;5093667;28;20220;-20
2022/09/25 02:29:53;;;;;;;3.30;0.98;;;;;;;;;;5093665;28;20233;-21
2022/09/25 02:32:21;;;;;;;4.28;1.13;;;;;;;;;;5091788;28;20240;-20
2022/09/25 02:34:48;;;;;;;3.50;0.85;;;;;;;;;;5093115;28;20225;-20
2022/09/25 02:37:16;;;;;;;3.72;1.05;;;;;;;;;;5092362;28;20232;-21
2022/09/25 02:39:46;;;;;;;2.03;1.10;;;;;;;;;;5083944;28;22218;-20
2022/09/25 02:42:15;;;;;;;3.05;0.85;;;;;;;;;;5093060;28;20228;-21
2022/09/25 02:44:53;;;;;;;2.05;1.10;;;;;;;;;;5092858;28;20278;-20
2022/09/25 02:47:22;;;;;;;3.22;1.25;;;;;;;;;;5074624;28;21051;-20
2022/09/25 02:49:50;;;;;;;3.10;0.93;;;;;;;;;;5091778;28;20317;-20
2022/09/25 02:52:19;;;;;;;1.63;0.80;;;;;;;;;;5092680;28;20237;-20
2022/09/25 02:54:48;;;;;;;2.75;1.02;;;;;;;;;;5092564;28;20998;-21
2022/09/25 02:57:17;;;;;;;1.27;0.85;;;;;;;;;;5092186;28;20241;-21
2022/09/25 02:59:46;;;;;;;2.22;1.20;;;;;;;;;;5091871;28;20254;-22
2022/09/25 03:02:13;;;;;;;2.33;0.90;;;;;;;;;;5074591;28;20233;-22
2022/09/25 03:04:40;;;;;;;1.88;0.93;;;;;;;;;;5071521;28;20230;-21
2022/09/25 03:07:08;;;;;;;2.63;1.30;;;;;;;;;;5089803;28;20232;-20
2022/09/25 03:09:34;;;;;;;3.33;1.10;;;;;;;;;;5092649;28;20220;-20
2022/09/25 03:12:03;;;;;;;1.90;0.98;;;;;;;;;;5091968;28;20233;-20
2022/09/25 03:14:31;;;;;;;2.15;0.88;;;;;;;;;;5092101;28;20295;-20
2022/09/25 03:16:59;;;;;;;2.90;1.13;;;;;;;;;;5090937;28;21070;-20
2022/09/25 03:19:27;;;;;;;2.75;0.90;;;;;;;;;;5092032;28;20985;-20
2022/09/25 03:21:54;;;;;;;2.47;0.90;;;;;;;;;;5091119;28;20248;-20
2022/09/25 03:24:22;;;;;;;3.15;1.02;;;;;;;;;;5091684;28;20228;-20
2022/09/25 03:26:49;;;;;;;1.50;0.85;;;;;;;;;;5090562;28;20232;-21
2022/09/25 03:29:18;;;;;;;1.17;0.95;;;;;;;;;;5089023;28;20221;-20
2022/09/25 03:31:45;;;;;;;2.05;1.00;;;;;;;;;;5089348;28;20696;-20
2022/09/25 03:34:13;;;;;;;1.70;0.73;;;;;;;;;;5088473;28;20232;-20
2022/09/25 03:36:40;;;;;;;1.77;0.82;;;;;;;;;;5089490;28;20275;-20
2022/09/25 03:39:09;;;;;;;1.40;0.70;;;;;;;;;;5090290;28;20302;-20
2022/09/25 03:41:36;;;;;;;1.83;0.70;;;;;;;;;;5092489;28;20309;-20
2022/09/25 03:44:04;;;;;;;2.20;0.90;;;;;;;;;;5092086;28;20688;-21
2022/09/25 03:46:33;;;;;;;2.22;0.90;;;;;;;;;;5092654;28;20223;-20
2022/09/25 03:49:01;;;;;;;1.30;0.70;;;;;;;;;;5092572;28;20302;-20
2022/09/25 03:51:28;;;;;;;2.22;1.05;;;;;;;;;;5092179;28;20237;-22
2022/09/25 03:53:56;;;;;;;1.63;0.80;;;;;;;;;;5091771;28;20753;-21
2022/09/25 03:56:24;;;;;;;1.63;0.70;;;;;;;;;;5092198;28;20228;-20
2022/09/25 03:58:53;;;;;;;2.33;1.20;;;;;;;;;;5091851;28;20326;-19
2022/09/25 04:01:20;;;;;;;1.98;0.60;;;;;;;;;;5091535;28;20331;-20
2022/09/25 04:03:49;;;;;;;1.58;0.90;;;;;;;;;;5091860;28;20613;-20
2022/09/25 04:06:17;;;;;;;1.48;0.85;;;;;;;;;;5090185;28;20236;-20
2022/09/25 04:08:45;;;;;;;3.08;1.10;;;;;;;;;;5090985;28;20278;-21
2022/09/25 04:11:12;;;;;;;2.75;0.80;;;;;;;;;;5091053;28;20233;-21
2022/09/25 04:13:40;;;;;;;1.70;0.82;;;;;;;;;;5090103;28;20233;-21
2022/09/25 04:16:08;;;;;;;1.50;0.90;;;;;;;;;;5088262;28;20846;-21
2022/09/25 04:18:35;;;;;;;1.17;0.68;;;;;;;;;;5088595;28;21069;-21
2022/09/25 04:21:04;;;;;;;1.33;0.63;;;;;;;;;;5089645;28;20213;-21
2022/09/25 04:23:32;;;;;;;1.05;0.77;;;;;;;;;;5089896;28;20228;-21
2022/09/25 04:25:59;;;;;;;1.73;0.80;;;;;;;;;;5089869;28;20327;-22
2022/09/25 04:28:27;;;;;;;1.85;0.80;;;;;;;;;;5080749;28;20229;-21
2022/09/25 04:30:54;;;;;;;1.85;0.65;;;;;;;;;;5091134;28;20291;-20
2022/09/25 04:36:08;;;;;;;1.40;0.82;;;;;;;;;;5091350;28;20274;-22
2022/09/25 04:38:35;;;;;;;2.08;0.85;;;;;;;;;;5094157;28;20651;-19
2022/09/25 04:41:03;;;;;;;3.80;0.98;;;;;;;;;;5095022;28;20943;-20
2022/09/25 04:43:30;;;;;;;1.60;0.70;;;;;;;;;;5092927;28;21032;-20
2022/09/25 04:46:00;;;;;;;2.38;0.88;;;;;;;;;;5094006;28;20374;-20
2022/09/25 04:48:27;;;;;;;2.20;0.63;;;;;;;;;;5094536;28;20220;-20
2022/09/25 04:50:57;;;;;;;1.75;0.60;;;;;;;;;;5094104;28;20243;-20
2022/09/25 04:53:26;;;;;;;1.42;0.70;;;;;;;;;;5094050;28;20397;-20
2022/09/25 04:55:54;;;;;;;3.65;0.80;;;;;;;;;;5094560;28;20221;-21
2022/09/25 04:58:21;;;;;;;0.95;0.70;;;;;;;;;;5093637;28;20286;-21
2022/09/25 05:00:49;;;;;;;1.52;0.90;;;;;;;;;;5093358;28;20404;-20
2022/09/25 05:03:17;;;;;;;1.30;0.73;;;;;;;;;;5092760;28;20229;-20
2022/09/25 05:05:44;;;;;;;1.10;0.68;;;;;;;;;;5091271;28;20236;-20
2022/09/25 05:08:12;;;;;;;3.20;0.80;;;;;;;;;;5090563;28;20225;-20
2022/09/25 05:10:40;;;;;;;1.35;0.70;;;;;;;;;;5093768;28;20319;-20
2022/09/25 05:13:10;;;;;;;1.70;0.82;;;;;;;;;;5093758;28;20232;-20
2022/09/25 05:15:37;;;;;;;3.40;0.68;;;;;;;;;;5093912;28;20298;-20
2022/09/25 05:18:05;;;;;;;1.80;0.77;;;;;;;;;;5094261;28;20228;-21
2022/09/25 05:20:32;;;;;;;1.58;0.60;;;;;;;;;;5094264;28;20228;-21
2022/09/25 05:23:00;;;;;;;2.38;0.88;;;;;;;;;;5093070;28;20322;-21
2022/09/25 05:25:28;;;;;;;0.98;0.70;;;;;;;;;;5094057;28;21033;-21
2022/09/25 05:27:57;;;;;;;2.50;0.90;;;;;;;;;;5094147;28;20290;-21
2022/09/25 05:30:24;;;;;;;3.13;0.70;;;;;;;;;;5093772;28;20229;-22
2022/09/25 05:32:51;;;;;;;1.27;0.60;;;;;;;;;;5093660;28;20571;-21
2022/09/25 05:35:19;;;;;;;1.17;0.55;;;;;;;;;;5110785;28;20231;-20
2022/09/25 05:37:46;;;;;;;2.05;0.77;;;;;;;;;;5113979;28;20671;-20
2022/09/25 05:40:14;;;;;;;1.48;0.60;;;;;;;;;;5096878;28;20279;-20
2022/09/25 05:42:42;;;;;;;2.88;0.75;;;;;;;;;;5093774;28;20248;-22
2022/09/25 05:45:11;;;;;;;1.20;0.70;;;;;;;;;;5092671;28;20278;-22
2022/09/25 05:47:39;;;;;;;1.45;0.50;;;;;;;;;;5091785;28;20688;-20
2022/09/25 05:50:07;;;;;;;0.75;0.50;;;;;;;;;;5092314;28;20287;-21
2022/09/25 05:52:34;;;;;;;1.10;0.60;;;;;;;;;;5092312;28;20274;-20
2022/09/25 05:55:02;;;;;;;2.45;0.75;;;;;;;;;;5092613;28;20237;-20
2022/09/25 05:57:30;;;;;;;1.00;0.50;;;;;;;;;;5089341;28;20295;-20
2022/09/25 05:59:58;;;;;;;1.00;0.70;;;;;;;;;;5090520;28;20216;-22
2022/09/25 06:02:27;;;;;;;0.70;0.50;;;;;;;;;;5092215;28;21054;-20
2022/09/25 06:04:54;;;;;;;0.93;0.60;;;;;;;;;;5092650;28;20245;-20
2022/09/25 06:07:21;;;;;;;1.05;0.50;;;;;;;;;;5093454;28;20236;-20
2022/09/25 06:09:49;;;;;;;2.22;0.73;;;;;;;;;;5093376;28;20236;-20
2022/09/25 06:12:17;;;;;;;0.70;0.60;;;;;;;;;;5093038;28;20381;-22
2022/09/25 06:14:44;;;;;;;2.65;0.65;;;;;;;;;;5093145;28;20232;-21
2022/09/25 06:17:12;;;;;;;3.08;0.60;;;;;;;;;;5092792;28;20221;-20
2022/09/25 06:19:40;;;;;;;1.23;0.55;;;;;;;;;;5092996;28;21082;-20
2022/09/25 06:22:08;;;;;;;0.65;0.50;;;;;;;;;;5093178;28;20245;-22
2022/09/25 06:24:35;;;;;;;1.60;0.77;;;;;;;;;;5092634;28;20228;-20
2022/09/25 06:27:02;;;;;;;2.30;0.60;;;;;;;;;;5092814;28;20229;-22
2022/09/25 06:29:30;;;;;;;1.05;0.70;;;;;;;;;;5083839;28;20288;-19
2022/09/25 06:31:57;;;;;;;1.23;0.73;;;;;;;;;;5092602;28;20232;-21
2022/09/25 06:34:26;;;;;;;3.30;0.82;;;;;;;;;;5093013;28;20909;-22
2022/09/25 06:36:55;;;;;;;5.03;0.60;;;;;;;;;;5092627;28;21288;-22
2022/09/25 06:39:22;;;;;;;0.50;0.40;;;;;;;;;;5092464;28;20238;-21
2022/09/25 06:41:51;;;;;;;0.98;0.57;;;;;;;;;;5092702;28;20225;-21
2022/09/25 06:44:19;;;;;;;4.32;0.70;;;;;;;;;;5092354;28;20298;-22
2022/09/25 06:46:48;;;;;;;5.57;2.00;;;;;;;;;;5092490;28;20279;-20
2022/09/25 06:49:15;;;;;;;4.72;2.65;;;;;;;;;;5092457;28;20225;-20
2022/09/25 06:51:43;;;;;;;7.93;2.53;;;;;;;;;;5091110;28;20278;-20
2022/09/25 06:54:11;;;;;;;5.78;2.58;;;;;;;;;;5091850;28;20228;-21
2022/09/25 06:56:40;;;;;;;5.05;2.60;;;;;;;;;;5092466;28;20229;-20
2022/09/25 06:59:08;;;;;;;9.43;2.33;;;;;;;;;;5091468;28;20310;-20
2022/09/25 07:01:35;;;;;;;8.38;2.53;;;;;;;;;;5091237;28;20271;-21
2022/09/25 07:04:02;;;;;;;4.38;2.20;;;;;;;;;;5091968;28;20527;-20
2022/09/25 07:06:32;;;;;;;3.38;2.10;;;;;;;;;;5091342;28;20237;-20
2022/09/25 07:09:00;;;;;;;4.00;1.77;;;;;;;;;;5091544;28;20750;-20
2022/09/25 07:11:30;;;;;;;5.85;1.85;;;;;;;;;;5092137;28;20288;-19
2022/09/25 07:13:57;;;;;;;4.25;1.70;;;;;;;;;;5090737;28;20327;-19
2022/09/25 07:16:25;;;;;;;7.68;1.85;;;;;;;;;;5092037;28;20240;-19
2022/09/25 07:18:52;;;;;;;4.32;1.48;;;;;;;;;;5092451;28;20988;-20
2022/09/25 07:21:20;;;;;;;7.18;1.73;;;;;;;;;;5091854;28;20324;-21
2022/09/25 07:23:48;;;;;;;6.03;1.90;;;;;;;;;;5090808;28;20237;-21
2022/09/25 07:26:19;;;;;;;10.63;1.65;;;;;;;;;;5091189;28;20228;-20
2022/09/25 07:28:48;;;;;;;5.25;1.42;;;;;;;;;;5091343;28;21152;-21
2022/09/25 07:31:16;;;;;;;3.42;1.63;;;;;;;;;;5091165;28;20236;-20
2022/09/25 07:33:43;;;;;;;7.57;1.70;;;;;;;;;;5091510;28;20240;-22
2022/09/25 07:36:11;;;;;;;8.68;1.20;;;;;;;;;;5090634;28;20236;-21
2022/09/25 07:38:38;;;;;;;5.20;1.80;;;;;;;;;;5091129;28;20290;-20
2022/09/25 07:41:06;;;;;;;9.68;1.70;;;;;;;;;;5091151;28;20221;-20
2022/09/25 07:43:33;;;;;;;16.75;2.45;;;;;;;;;;5091577;28;20298;-21
2022/09/25 07:46:02;;;;;;;11.02;1.52;;;;;;;;;;5090140;28;20251;-21
2022/09/25 07:48:30;;;;;;;16.48;2.58;;;;;;;;;;5091253;28;20501;-21
2022/09/25 07:50:59;;;;;;;11.32;1.70;;;;;;;;;;5090653;28;20232;-22
2022/09/25 07:53:26;;;;;;;7.82;1.60;;;;;;;;;;5084825;28;21072;-22
2022/09/25 07:55:55;;;;;;;8.32;1.55;;;;;;;;;;5087874;28;20286;-22
2022/09/25 07:58:23;;;;;;;10.02;1.73;;;;;;;;;;5084113;28;21326;-23
2022/09/25 08:00:50;;;;;;;9.18;1.33;;;;;;;;;;5087522;28;20968;-21
2022/09/25 08:03:19;;;;;;;12.57;1.77;;;;;;;;;;5085140;28;20314;-21
2022/09/25 08:05:46;;;;;;;9.05;1.38;;;;;;;;;;5087095;28;20232;-20
2022/09/25 08:08:13;;;;;;;8.45;1.60;;;;;;;;;;5085089;28;20302;-20
2022/09/25 08:10:41;;;;;;;14.15;1.33;;;;;;;;;;5087192;28;20233;-21
2022/09/25 08:13:08;;;;;;;7.57;1.58;;;;;;;;;;5086356;28;20294;-21
2022/09/25 08:15:35;;;;;;;11.23;1.30;;;;;;;;;;5085739;28;20241;-22
2022/09/25 08:18:03;;;;;;;10.45;1.70;;;;;;;;;;5087638;28;20236;-21
2022/09/25 08:20:32;;;;;;;6.82;1.40;;;;;;;;;;5085843;28;20298;-21
2022/09/25 08:22:59;;;;;;;17.05;1.63;;;;;;;;;;5087874;28;20302;-21
2022/09/25 08:25:26;;;;;;;5.47;1.15;;;;;;;;;;5086550;28;20231;-22
2022/09/25 08:27:53;;;;;;;14.73;1.40;;;;;;;;;;5087594;28;20274;-22
2022/09/25 08:30:22;;;;;;;14.02;1.48;;;;;;;;;;5085022;28;20449;-16
2022/09/25 08:32:51;;;;;;;21.15;2.97;;;;;;;;;;5088340;28;20228;-16
2022/09/25 08:35:18;;;;;;;16.67;2.10;;;;;;;;;;5085520;28;20241;-16
2022/09/25 08:37:47;;;;;;;18.67;2.28;;;;;;;;;;5087199;28;20250;-16
2022/09/25 08:40:16;;;;;;;20.77;1.85;;;;;;;;;;5085513;28;20314;-15
2022/09/25 08:42:44;;;;;;;16.00;2.10;;;;;;;;;;5087964;28;20263;-16
2022/09/25 08:50:42;;;;;;;25.63;2.28;;;;;;;;;;5086085;28;20232;-16
2022/09/25 08:53:19;;;;;;;19.83;2.45;;;;;;;;;;5085183;28;20283;-17
2022/09/25 08:58:39;;;;;;;16.88;2.10;;;;;;;;;;5080171;28;21080;-16
2022/09/25 09:01:07;;;;;;;21.52;1.95;;;;;;;;;;5085327;28;20974;-17
2022/09/25 09:03:36;;;;;;;21.67;2.22;;;;;;;;;;5085742;28;20248;-16
2022/09/25 09:06:04;;;;;;;22.58;2.45;;;;;;;;;;5085228;28;20302;-17
2022/09/25 09:08:33;;;;;;;21.63;1.95;;;;;;;;;;5083733;28;20263;-16
2022/09/25 09:11:01;;;;;;;20.13;2.38;;;;;;;;;;5085320;28;20237;-17
2022/09/25 09:13:31;;;;;;;22.98;2.20;;;;;;;;;;5085371;28;20240;-16
2022/09/25 09:15:59;;;;;;;36.05;2.30;;;;;;;;;;5084947;28;20422;-16
